Terminal Aerodrome Forecast
Issued by NWS

Home | Current Version | Previous Version | Graphics & Text | Print | Product List | Glossary On
Versions: 1 2 3 4 5 6 7 8 9 10 11 12 13 14 15 16 17 18 19 20
000
FTUS43 KBIS 170500
TAFDIK
TAF
KDIK 170527Z 1706/1806 16009KT P6SM OVC010
      TEMPO 1706/1709 OVC005
     FM170900 14009KT P6SM OVC005
     FM171800 15012KT P6SM OVC005
     FM180100 15010KT P6SM VCSH OVC015=

USA.gov is the U.S. government's official web portal to all federal, state and local government web resources and services.